x

East Hatteras - 150 Nm East Of Cape Hatteras (41001) Wave Buoy

3:50 - Tue 9th Feb 2016 All times are EST. -5 hours from GMT.

  • Sig Wave height 17.7ft
  • Swell Direction
  • Peak Period 10s
  • Average Period 8s
  • Wind
    31mph, 43mph gusts
  • Sea Temp 71°f
  • Ar Temp 59°f
  • Sea Pressure 1003mb
  • East Hatteras - 150 Nm East Of Cape Hatteras
  • East Hatteras - 150 Nm East Of Cape Hatteras

More Historic Weather Station data

Upgrade to MSW Pro to gain access to the past 30 days of data for over 8000 Wavebouys and Weather Stations around the globe.

Join Pro

Comparision Forecast

View Surf forecast
   
Ter 02/09 3:50 17.5ft 10s 8s 31 43 mph 1003mb 71f 59f
3:40  -   -   -  34 43 mph 1003mb 71f 58f
3:30  -   -   -  34 45 mph 1002.8mb 71f 60f
3:20  -   -   -  31 43 mph 1002.5mb 71f 59f
3:10  -   -   -  34 43 mph 1002.4mb 71f 59f
3:00  -   -   -  34 47 mph 1002.3mb 71f 59f
2:50 16.5ft 9s 8s 29 40 mph 1002mb 71f 59f
2:40  -   -   -  31 43 mph 1002mb 71f 59f
2:30  -   -   -  34 43 mph 1002mb 71f 59f
2:20  -   -   -  36 47 mph 1002mb 71f 59f
2:10  -   -   -  34 43 mph 1001.6mb 71f 60f
2:00  -   -   -  34 45 mph 1001.4mb 71f 59f
1:50 15ft 10s 8s 36 49 mph 1001.5mb 71f 59f
1:40  -   -   -  36 47 mph 1001.5mb 71f 60f
1:30  -   -   -  31 47 mph 1001.4mb 71f 58f
1:20  -   -   -  31 43 mph 1001.4mb 71f 58f
1:10  -   -   -  31 43 mph 1001.1mb 71f 59f
1:00  -   -   -  34 43 mph 1001.3mb 71f 59f
12:50 15.5ft 9s 8s 34 47 mph 1001.3mb 71f 58f
12:40  -   -   -  36 49 mph 1001.5mb 71f 58f
12:30  -   -   -  31 43 mph 1001.9mb 71f 58f
12:20  -   -   -  31 43 mph 1002mb 71f 57f
12:10  -   -   -  34 49 mph 1002.1mb 71f 55f
12:00  -   -   -  27 45 mph 1002.5mb 71f 57f
11:50 14.5ft 9s 8s 16 22 mph 1002mb 71f 55f
11:40  -   -   -  25 36 mph 1002.1mb 71f 55f
11:30  -   -   -  31 43 mph 1002.8mb 71f 56f
11:20  -   -   -  29 43 mph 1002.5mb 71f 57f
11:10  -   -   -  25 38 mph 1002.3mb 71f 56f
11:00  -   -   -  31 43 mph 1002.4mb 71f 56f
10:50 14ft 9s 7s 29 43 mph 1002.3mb 71f 57f
10:40  -   -   -  31 47 mph 1002mb 71f 57f
10:30  -   -   -  29 40 mph 1001.8mb 71f 57f
10:20  -   -   -  34 45 mph 1001.8mb 71f 57f
10:10  -   -   -  29 40 mph 1001.6mb 71f 56f
10:00  -   -   -  34 45 mph 1001.6mb 71f 55f
9:50 13ft 15s 7s 29 40 mph 1001.5mb 71f 55f
9:40  -   -   -  29 45 mph 1001.5mb 71f 57f
9:30  -   -   -  27 36 mph 1000.8mb 71f 58f
9:20  -   -   -  31 40 mph 1001mb 71f 57f
9:10  -   -   -  34 45 mph 1001mb 71f 55f
9:00  -   -   -  31 43 mph 1001mb 71f 55f
8:50 15ft 14s 8s 29 40 mph 1001mb 71f 56f
8:40  -   -   -  31 43 mph 1000.6mb 71f 58f
8:30  -   -   -  31 40 mph 1000.5mb 71f 58f
8:20  -   -   -  29 40 mph 1000.1mb 71f 58f
8:10  -   -   -  31 38 mph 1000.3mb 71f 58f
8:00  -   -   -  29 36 mph 1000mb 71f 57f
7:50 14ft 14s 8s 29 36 mph 1000mb 71f 57f
7:40  -   -   -  27 38 mph 999.9mb 71f 58f
7:30  -   -   -  25 34 mph 999.8mb 71f 59f
7:20  -   -   -  27 34 mph 999.3mb 71f 59f
7:10  -   -   -  25 34 mph 998.9mb 71f 59f
7:00  -   -   -  29 36 mph 999.1mb 71f 59f
6:50 14ft 15s 8s 29 36 mph 999.1mb 71f 59f
6:40  -   -   -  29 36 mph 998.9mb 71f 59f
6:30  -   -   -  31 40 mph 998.5mb 71f 59f
6:20  -   -   -  31 40 mph 998.5mb 71f 59f
6:10  -   -   -  29 38 mph 997.9mb 71f 59f
6:00  -   -   -  27 31 mph 997.8mb 71f 59f
5:50 14.5ft 13s 9s 25 31 mph 997.5mb 71f 59f
5:40  -   -   -  27 34 mph 997mb 71f 60f
5:30  -   -   -  20 34 mph 997.1mb 71f 62f
5:20  -   -   -  20 29 mph 997.1mb 71f 60f
5:10  -   -   -  22 34 mph 997.4mb 71f 60f
5:00  -   -   -  22 31 mph 997.5mb 71f 60f
4:50 12ft 14s 9s 22 31 mph 997.9mb 71f 61f
4:40  -   -   -  22 31 mph 997.8mb 71f 60f
4:30  -   -   -  20 31 mph 998mb 71f 60f
4:20  -   -   -  18 27 mph 998.3mb 71f 59f
4:10  -   -   -  16 22 mph 998.5mb 71f 59f
4:00  -   -   -  16 22 mph 998.9mb 71f 58f
3:50 12ft 15s 8s 16 27 mph 999.1mb 71f 58f
3:40  -   -   -  13 20 mph 999.5mb 71f 58f
3:30  -   -   -  16 22 mph 1000mb 71f 58f
3:20  -   -   -  16 25 mph 1000mb 71f 58f
3:10  -   -   -  18 22 mph 999.9mb 71f 58f
3:00  -   -   -  18 25 mph 1000.3mb 71f 57f
2:50 12.5ft 15s 8s 20 27 mph 1000.5mb - 57f
2:40  -   -   -  22 29 mph 1000.6mb 72f 57f
2:30  -   -   -  25 36 mph 1000.9mb 71f 58f
2:20  -   -   -  22 29 mph 1000.5mb 72f 59f
2:10  -   -   -  25 34 mph 1000.8mb 71f 59f
2:00  -   -   -  25 36 mph 1001.4mb 71f 63f
1:50 12.5ft 15s 9s 22 31 mph 1000.9mb 71f 62f
1:40  -   -   -  20 31 mph 1001.5mb 71f 62f
1:30  -   -   -  18 27 mph 1001.6mb 71f 61f
1:20  -   -   -  16 25 mph 1002mb 71f 60f
1:10  -   -   -  13 20 mph 1002.1mb 71f 60f
1:00  -   -   -  9 18 mph 1002.5mb 71f 58f
12:50 11.5ft 15s 8s 9 16 mph 1002.9mb 71f 57f
12:40  -   -   -  11 18 mph 1003.5mb 71f 57f
12:30  -   -   -  11 18 mph 1004.1mb 71f 57f
12:20  -   -   -  9 16 mph 1004.4mb 71f 57f
12:10  -   -   -  11 18 mph 1004.4mb 71f 56f
12:00  -   -   -  13 25 mph 1004.3mb 71f 56f
Seg 02/08 11:50 11ft 15s 8s 11 27 mph 1004.5mb 71f 60f
11:40  -   -   -  7 13 mph 1004mb 71f 60f
11:30  -   -   -  4 13 mph 1003.5mb 71f 60f
11:20  -   -   -  4 13 mph 1004.4mb 72f 60f
11:10  -   -   -  7 13 mph 1004.8mb 71f 60f
11:00  -   -   -  7 16 mph 1005mb 71f 60f
10:50 12ft 15s 8s 7 16 mph 1005mb 71f 60f
10:40  -   -   -  7 13 mph 1005.3mb 71f 59f
10:30  -   -   -  7 16 mph 1005.5mb 71f 59f
10:20  -   -   -  7 13 mph 1005.5mb 71f 59f
10:10  -   -   -  9 18 mph 1006mb 71f 59f
10:00  -   -   -  11 22 mph 1006.3mb 71f 59f
9:50 13.5ft 14s 8s 13 20 mph 1006.5mb 71f 59f
9:40  -   -   -  16 25 mph 1006.6mb 71f 59f
9:30  -   -   -  20 29 mph 1007mb 71f 60f
9:20  -   -   -  16 25 mph 1007mb 71f 60f
9:10  -   -   -  13 20 mph 1006.6mb 71f 60f
9:00  -   -   -  16 25 mph 1006.5mb 71f 60f
8:50 13ft 15s 8s 16 27 mph 1007mb 71f 60f
8:40  -   -   -  16 22 mph 1007mb 71f 60f
8:30  -   -   -  18 27 mph 1007mb 71f 60f
8:20  -   -   -  18 25 mph 1007.4mb 71f 60f
8:10  -   -   -  20 27 mph 1007.4mb 71f 60f
8:00  -   -   -  18 27 mph 1007.4mb 71f 60f
7:50 13ft 15s 8s 20 29 mph 1007.4mb - 60f
7:40  -   -   -  22 29 mph 1007.6mb 71f 60f
7:30  -   -   -  22 31 mph 1007.8mb 71f 60f
7:20  -   -   -  20 29 mph 1007.8mb 71f 59f
7:10  -   -   -  22 29 mph 1007.9mb 71f 59f
7:00  -   -   -  22 29 mph 1008mb 71f 59f
6:50 14ft 13s 9s 22 29 mph 1008mb 71f 59f
6:40  -   -   -  22 29 mph 1007.9mb 71f 58f
6:30  -   -   -  22 29 mph 1008mb 71f 58f
6:20  -   -   -  20 25 mph 1007.9mb 71f 58f
6:10  -   -   -  20 27 mph 1007.8mb 71f 58f
6:00  -   -   -  22 31 mph 1007.8mb 71f 58f
5:50 13.5ft 13s 8s 22 29 mph 1007.9mb 71f 58f
5:40  -   -   -  22 31 mph 1007.8mb 71f 58f
5:30  -   -   -  22 31 mph 1007.8mb 71f 58f
5:20  -   -   -  22 29 mph 1007.6mb 71f 58f
5:10  -   -   -  22 31 mph 1007.5mb 71f 58f
5:00  -   -   -  25 29 mph 1007.5mb 71f 58f
4:50 14ft 11s 8s 22 31 mph 1007.4mb 71f 58f
4:40  -   -   -  22 31 mph 1007.3mb 71f 58f
4:30  -   -   -  22 29 mph 1007mb 72f 59f
4:20  -   -   -  22 29 mph 1006.9mb 72f 59f
4:10  -   -   -  22 29 mph 1006.8mb 72f 59f
4:00  -   -   -  25 31 mph 1006.5mb 71f 59f
3:50 14ft 11s 8s 25 31 mph 1006.5mb 72f 59f
3:40  -   -   -  25 31 mph 1006.3mb 71f 60f
3:30  -   -   -  25 31 mph 1006mb 71f 59f
3:20  -   -   -  25 31 mph 1006mb 71f 60f
3:10  -   -   -  25 34 mph 1006mb 71f 60f
3:00  -   -   -  25 34 mph 1006mb 71f 60f
2:50 14.5ft 12s 8s 25 34 mph 1005.9mb 71f 60f
2:40  -   -   -  25 36 mph 1005.8mb 71f 60f
2:30  -   -   -  27 34 mph 1005.6mb 71f 60f
2:20  -   -   -  27 36 mph 1005.5mb 71f 60f
2:10  -   -   -  27 34 mph 1005.5mb 71f 60f
2:00  -   -   -  27 34 mph 1005.5mb 71f 60f
1:50 16.5ft 11s 8s 27 36 mph 1005.5mb 71f 60f
1:40  -   -   -  27 36 mph 1005.4mb 71f 60f
1:30  -   -   -  27 38 mph 1005.1mb 71f 60f
1:20  -   -   -  27 34 mph 1005mb 71f 60f
1:10  -   -   -  27 34 mph 1004.6mb 71f 60f
1:00  -   -   -  27 34 mph 1004.5mb 71f 60f
12:50 17.5ft 11s 8s 27 36 mph 1004.5mb 71f 60f
12:40  -   -   -  27 34 mph 1004.5mb 71f 60f
12:30  -   -   -  29 36 mph 1004.5mb 71f 60f
12:20  -   -   -  29 38 mph 1004.5mb 71f 60f
12:10  -   -   -  29 38 mph 1004.4mb 71f 60f
12:00  -   -   -  29 36 mph 1004.5mb 71f 60f
11:50 18.5ft 11s 8s 29 38 mph 1004.5mb 71f 60f
11:40  -   -   -  31 40 mph 1004.4mb 71f 60f
11:30  -   -   -  31 40 mph 1004.4mb 71f 60f
11:20  -   -   -  34 40 mph 1004.4mb 71f 60f
11:10  -   -   -  31 43 mph 1004.1mb 71f 59f
11:00  -   -   -  34 47 mph 1004.3mb 71f 59f
10:50 18.5ft 11s 8s 31 43 mph 1004mb 71f 59f
10:40  -   -   -  31 43 mph 1003.6mb 71f 59f
10:30  -   -   -  34 43 mph 1003.6mb 71f 60f
10:20  -   -   -  31 43 mph 1003.3mb 71f 61f
10:10  -   -   -  31 40 mph 1003mb 71f 61f
10:00  -   -   -  31 43 mph 1002.8mb 71f 61f
9:50 21.5ft 13s 8s 34 40 mph 1002.3mb 71f 60f
9:40  -   -   -  34 43 mph 1002mb 71f 60f
9:30  -   -   -  34 43 mph 1001.8mb 71f 61f
9:20  -   -   -  34 43 mph 1001.5mb 71f 60f
9:10  -   -   -  36 49 mph 1001.3mb 71f 61f
9:00  -   -   -  36 47 mph 1001mb 71f 60f
8:50 21.5ft 12s 8s 36 47 mph 1000.6mb 71f 61f
8:40  -   -   -  38 49 mph 1000.4mb - 60f
8:30  -   -   -  38 47 mph 1000.4mb - 60f
8:20  -   -   -  36 49 mph 1000.1mb - 60f
8:10  -   -   -  38 49 mph 999.8mb 71f 60f
8:00  -   -   -  38 54 mph 999.4mb 71f 60f
7:50 24.5ft 11s 8s 38 51 mph 999mb 71f 60f
7:40  -   -   -  38 47 mph 998.5mb 71f 60f
7:30  -   -   -  38 51 mph 998.1mb 71f 61f
7:20  -   -   -  38 51 mph 997.5mb 71f 60f
7:10  -   -   -  38 51 mph 997mb 71f 61f
7:00  -   -   -  40 51 mph 996.9mb 71f 61f
6:50 27.5ft 11s 9s 40 56 mph 996.4mb - 60f
6:40  -   -   -  43 58 mph 995.8mb - 60f
6:30  -   -   -  43 56 mph 995.3mb 71f 60f
6:20  -   -   -  45 56 mph 994.9mb 71f 61f
6:10  -   -   -  45 56 mph 994.4mb 71f 60f
6:00  -   -   -  49 63 mph 993.9mb 71f 59f
5:50 28ft 10s 9s 47 65 mph 992.9mb 71f 58f
5:40  -   -   -  51 69 mph 992.4mb 71f 58f
5:30  -   -   -  54 72 mph 991.8mb - 58f
5:20  -   -   -  51 72 mph 991mb 71f 58f
5:10  -   -   -  54 76 mph 990mb 71f 58f
5:00  -   -   -  51 72 mph 989.4mb 71f 59f
4:50 18.5ft 11s 7s 54 72 mph 988.5mb 71f 59f
4:40  -   -   -  54 69 mph 987.8mb 71f 60f
4:30  -   -   -  51 67 mph 986.3mb 71f 61f
4:20  -   -   -  51 72 mph 985.3mb 71f 62f
4:10  -   -   -  49 65 mph 984.5mb 71f 63f
4:00  -   -   -  47 63 mph 983.5mb 71f 64f
3:50 16ft 11s 9s 43 63 mph 982.6mb 71f 65f
3:40  -   -   -  25 47 mph 981.8mb 71f 64f
3:30  -   -   -  20 34 mph 982.1mb 71f 65f
3:20  -   -   -  16 22 mph 982.5mb 71f 65f
3:10  -   -   -  13 20 mph 982.6mb 71f 65f
3:00  -   -   -  11 20 mph 982.6mb 71f 64f
2:50 16.5ft 10s 8s 13 20 mph 982.8mb 71f 64f
2:40  -   -   -  11 18 mph 982.8mb 71f 64f
2:30  -   -   -  7 16 mph 982.8mb 71f 64f
2:20  -   -   -  7 13 mph 982.9mb 71f 64f
2:10  -   -   -  9 16 mph 982.9mb 71f 64f
2:00  -   -   -  9 16 mph 983mb 71f 64f
1:50 15.5ft 8s 8s 9 16 mph 983mb 71f 64f
1:40  -   -   -  11 18 mph 983mb 71f 64f
1:30  -   -   -  13 20 mph 983mb 71f 64f
1:20  -   -   -  13 20 mph 983.3mb 71f 64f
1:10  -   -   -  16 25 mph 983.4mb 71f 65f
1:00  -   -   -  16 22 mph 983.5mb 71f 65f
12:50 15.5ft 11s 8s 18 25 mph 983.5mb 71f 65f
12:40  -   -   -  20 29 mph 983.8mb 71f 65f
12:30  -   -   -  20 27 mph 984mb 71f 65f
12:20  -   -   -  20 27 mph 984.1mb 71f 65f
12:10  -   -   -  22 31 mph 984.1mb 71f 66f
12:00  -   -   -  22 31 mph 984.5mb 71f 66f
Dom 02/07 11:50 16.5ft 11s 8s 20 27 mph 984.8mb 71f 66f
11:40  -   -   -  18 31 mph 985mb 71f 65f
11:30  -   -   -  20 29 mph 985mb 71f 65f
11:20  -   -   -  20 31 mph 985.3mb 71f 65f
11:10  -   -   -  20 27 mph 985.5mb 71f 64f
11:00  -   -   -  22 34 mph 985.9mb 71f 63f
10:50 14ft 11s 8s 31 40 mph 986.3mb 71f 65f
10:40  -   -   -  27 38 mph 986.1mb 71f 67f
10:30  -   -   -  27 34 mph 986.4mb 71f 67f
10:20  -   -   -  27 38 mph 986.5mb 71f 67f
10:10  -   -   -  29 40 mph 986.8mb 71f 67f
10:00  -   -   -  29 40 mph 987mb 71f 67f
9:50 17.5ft 11s 8s 29 40 mph 987mb 71f 67f
9:40  -   -   -  29 40 mph 987mb 71f 67f
9:30  -   -   -  29 36 mph 987.1mb 71f 67f
9:20  -   -   -  29 40 mph 987.1mb 71f 67f
9:10  -   -   -  29 36 mph 987.3mb 71f 67f
9:00  -   -   -  29 36 mph 987.6mb 71f 68f
8:50 16.5ft 11s 8s 29 38 mph 988mb 71f 69f
8:40  -   -   -  27 38 mph 988.4mb 71f 68f
8:30  -   -   -  22 29 mph 988.9mb 71f 67f
8:20  -   -   -  29 38 mph 989.1mb - 67f
8:10  -   -   -  27 40 mph 989.3mb 71f 69f
8:00  -   -   -  22 31 mph 989.4mb 71f 69f
7:50 19.5ft 11s 8s 22 29 mph 989.6mb 71f 68f
7:40  -   -   -  25 34 mph 989.9mb 71f 68f
7:30  -   -   -  29 38 mph 990.1mb 71f 70f
7:20  -   -   -  27 36 mph 990mb 71f 71f
7:10  -   -   -  25 34 mph 989.9mb 71f 70f
7:00  -   -   -  29 38 mph 990mb 71f 68f
6:50 20ft 11s 8s 34 43 mph 989.8mb 71f 67f
6:40  -   -   -  36 45 mph 990.8mb 71f 66f
6:30  -   -   -  36 45 mph 991mb 71f 66f
6:20  -   -   -  36 49 mph 992mb 71f 65f
6:10  -   -   -  38 49 mph 992.6mb 71f 65f
6:00  -   -   -  40 54 mph 993mb 71f 65f
5:50 21.5ft 11s 8s 38 54 mph 993mb 71f 65f
5:40  -   -   -  43 51 mph 993.5mb 71f 64f
5:30  -   -   -  38 51 mph 993.9mb 71f 64f
5:20  -   -   -  43 54 mph 994.1mb 71f 64f
5:10  -   -   -  43 56 mph 994mb 71f 63f
5:00  -   -   -  43 56 mph 994.4mb 71f 63f
4:50 20.5ft 10s 8s 45 56 mph 995mb 71f 63f
4:40 20.5ft  -  8s 45 56 mph 995mb 71f 63f
4:30  -   -   -  45 58 mph 995.5mb - 62f
4:20  -   -   -  43 54 mph 995.9mb 71f 63f
4:10  -   -   -  43 56 mph 996.3mb 71f 63f
4:00  -   -   -  43 56 mph 996.5mb 71f 63f
3:50 15ft 10s 7s 40 51 mph 996.9mb 71f 62f
3:40  -   -   -  40 51 mph 997.5mb 71f 62f
3:30  -   -   -  43 56 mph 998mb 71f 62f
3:20  -   -   -  40 54 mph 998.6mb 71f 62f
3:10  -   -   -  43 54 mph 999mb 71f 62f
3:00  -   -   -  40 54 mph 998.6mb 71f 62f
2:50 14ft 9s 7s 40 54 mph 999.3mb 71f 61f
2:40  -   -   -  45 56 mph 999.9mb 71f 61f
2:30  -   -   -  43 54 mph 1000.4mb 71f 60f
2:20  -   -   -  43 56 mph 1000.5mb 71f 61f
2:10  -   -   -  40 49 mph 1001.5mb 71f 62f
2:00  -   -   -  43 54 mph 1001.8mb 71f 62f
1:50 14ft 9s 7s 40 54 mph 1002.1mb 71f 61f
1:40  -   -   -  43 56 mph 1002mb 71f 62f
1:30  -   -   -  40 51 mph 1002.5mb 71f 62f
1:20  -   -   -  40 56 mph 1003mb 71f 61f
1:10  -   -   -  40 51 mph 1003.3mb 71f 61f
1:00  -   -   -  43 54 mph 1003.5mb 71f 60f
12:50 12.5ft 10s 7s 40 54 mph 1003.6mb 71f 61f
12:40  -   -   -  43 54 mph 1004.1mb 71f 60f
12:30  -   -   -  38 51 mph 1004.9mb 71f 60f
12:20  -   -   -  40 51 mph 1005.5mb 71f 61f
12:10  -   -   -  38 49 mph 1005.9mb 71f 61f
12:00  -   -   -  38 49 mph 1006.9mb 71f 61f
11:50 11ft 8s 6s 38 49 mph 1007.6mb 71f 62f
11:40  -   -   -  38 47 mph 1008.1mb 71f 62f
11:30  -   -   -  38 49 mph 1008.3mb 71f 62f
11:20  -   -   -  36 45 mph 1008.3mb 71f 62f
11:10  -   -   -  36 45 mph 1009mb 71f 62f
11:00  -   -   -  36 47 mph 1009.4mb 71f 61f
10:50 10ft 8s 6s 36 45 mph 1009.6mb 71f 62f
10:40  -   -   -  36 45 mph 1010mb 71f 61f
10:30  -   -   -  34 45 mph 1010.8mb 71f 61f
10:20  -   -   -  36 47 mph 1011.4mb 71f 61f
10:10  -   -   -  34 45 mph 1011.5mb 71f 61f
10:00  -   -   -  34 45 mph 1011.6mb 71f 61f
9:50 8ft 8s 6s 31 43 mph 1012mb 71f 62f
9:40  -   -   -  34 40 mph 1012.4mb 71f 61f
9:30  -   -   -  34 40 mph 1012.5mb 71f 61f
9:20  -   -   -  34 43 mph 1013mb 71f 60f
9:10  -   -   -  31 40 mph 1013.1mb 71f 61f
9:00  -   -   -  34 43 mph 1013.6mb - 61f
8:50 8ft 6s 6s 31 38 mph 1013.6mb 71f 61f
8:40  -   -   -  29 38 mph 1014.5mb 71f 61f
8:30  -   -   -  29 36 mph 1013.8mb 71f 61f
8:20  -   -   -  29 38 mph 1014.3mb 71f 61f
8:10  -   -   -  29 36 mph 1014.8mb 71f 60f
8:00  -   -   -  29 36 mph 1014.6mb 71f 61f
7:50 8ft 7s 6s 31 38 mph 1014.1mb 71f 61f
7:40  -   -   -  27 36 mph 1014.8mb 71f 61f
7:30  -   -   -  29 36 mph 1013.9mb 71f 61f
7:20  -   -   -  29 36 mph 1013.6mb 71f 61f
7:10  -   -   -  27 36 mph 1014.1mb 71f 62f
7:00  -   -   -  29 36 mph 1014.3mb 71f 62f
6:50 8ft 6s 6s 29 36 mph 1014mb 71f 62f
6:40  -   -   -  29 36 mph 1014mb 71f 62f
6:30  -   -   -  29 38 mph 1013.9mb 71f 62f
6:20  -   -   -  31 38 mph 1013.8mb 71f 62f
6:10  -   -   -  29 38 mph 1014mb 71f 62f
6:00  -   -   -  29 38 mph 1014.4mb 71f 62f
5:50 7.5ft 11s 6s 29 36 mph 1014.6mb 71f 62f
5:40  -   -   -  29 36 mph 1015mb 71f 62f
5:30  -   -   -  29 36 mph 1015.1mb 71f 62f
5:20  -   -   -  27 34 mph 1015.1mb 71f 62f
5:10  -   -   -  27 34 mph 1015.5mb 71f 62f
5:00  -   -   -  27 34 mph 1016mb 71f 62f
4:50 6ft 10s 6s 27 34 mph 1016.3mb 71f 62f
4:40  -   -   -  27 34 mph 1016.3mb 71f 62f
4:30  -   -   -  25 31 mph 1016.3mb 71f 62f
4:20  -   -   -  25 31 mph 1016.4mb 71f 61f
4:10  -   -   -  25 31 mph 1016.8mb 71f 62f
4:00  -   -   -  25 31 mph 1017mb 71f 62f
3:50 6ft 10s 6s 22 29 mph 1017.4mb 71f 61f
3:40  -   -   -  20 27 mph 1017.8mb 71f 61f
3:30  -   -   -  20 25 mph 1018.1mb 71f 61f
3:20  -   -   -  22 27 mph 1018.1mb 71f 61f
3:10  -   -   -  22 29 mph 1018.3mb 71f 61f
3:00  -   -   -  25 29 mph 1018.4mb 71f 62f
2:50 6ft 11s 6s 22 29 mph 1018.5mb 71f 62f
2:40  -   -   -  22 29 mph 1018.8mb 71f 61f
2:30  -   -   -  22 27 mph 1019mb 71f 62f
2:20  -   -   -  22 27 mph 1019mb 71f 62f
2:10  -   -   -  22 27 mph 1019.3mb 71f 62f
2:00  -   -   -  20 27 mph 1019.5mb 71f 62f
1:50 6ft 9s 6s 20 27 mph 1019.5mb 71f 62f
1:40 6ft  -  6s 18 25 mph 1019.9mb 71f 62f
1:30  -   -   -  18 22 mph 1019.9mb 71f 62f
1:20  -   -   -  18 25 mph 1020mb 71f 62f
1:10  -   -   -  18 22 mph 1020.3mb 71f 61f
1:00  -   -   -  18 25 mph 1020.1mb 71f 61f
12:50 5.5ft 11s 6s 18 22 mph 1020.4mb 71f 61f
12:40  -   -   -  18 22 mph 1020.6mb 72f 61f
12:30  -   -   -  18 22 mph 1020.9mb 72f 61f
12:20  -   -   -  18 25 mph 1020.9mb 72f 61f
12:10  -   -   -  16 22 mph 1021mb 72f 60f
12:00  -   -   -  16 22 mph 1021.5mb 72f 60f
Sáb 02/06 11:50 6ft 11s 6s 16 25 mph 1021.8mb 72f 61f
11:40  -   -   -  16 22 mph 1021.6mb 72f 61f
11:30  -   -   -  18 25 mph 1021.8mb 72f 61f
11:20  -   -   -  18 22 mph 1022mb 72f 61f
11:10  -   -   -  16 22 mph 1022.3mb 72f 61f
11:00  -   -   -  16 22 mph 1022.4mb 72f 61f
10:50 6ft 10s 6s 16 20 mph 1022.5mb 72f 61f
10:40 6ft  -  6s 16 20 mph 1022.6mb 72f 61f
10:30  -   -   -  13 20 mph 1022.6mb 72f 60f
10:20  -   -   -  13 18 mph 1022.8mb 72f 60f
10:10  -   -   -  13 20 mph 1022.9mb 72f 60f
10:00  -   -   -  13 18 mph 1023mb 72f 60f
9:50 5.5ft 10s 6s 13 20 mph 1023.1mb 72f 59f
9:40  -   -   -  16 20 mph 1023mb 72f 59f
9:30  -   -   -  16 20 mph 1023.3mb 72f 60f
9:20  -   -   -  16 20 mph 1023.5mb 72f 60f
9:10  -   -   -  16 18 mph 1023.5mb 72f 61f
9:00  -   -   -  13 20 mph 1023.5mb 73f 60f
8:50 6.5ft 11s 7s 13 20 mph 1023.5mb 73f 60f
8:40 6.5ft  -  7s 11 16 mph 1023.4mb 73f 60f
8:30  -   -   -  11 16 mph 1023.5mb 73f 59f
8:20  -   -   -  11 16 mph 1023.8mb 73f 59f
8:10  -   -   -  13 20 mph 1024mb 73f 60f
8:00  -   -   -  13 18 mph 1024.3mb 73f 60f
7:50 6.5ft 10s 7s 16 20 mph 1024.3mb 73f 60f
7:40  -   -   -  16 20 mph 1024mb 73f 60f
7:30  -   -   -  16 22 mph 1024.5mb 73f 60f
7:20  -   -   -  13 20 mph 1024.3mb 73f 60f
7:10  -   -   -  13 20 mph 1024.2mb 73f 60f
7:00  -   -   -  13 18 mph 1024.3mb 73f 59f
6:50 6ft 11s 6s 13 18 mph 1024.5mb 73f 59f
6:40  -   -   -  13 20 mph 1024.5mb 73f 59f
6:30  -   -   -  16 20 mph 1024.5mb 73f 59f
6:20  -   -   -  16 25 mph 1024.3mb 73f 59f
6:10  -   -   -  13 18 mph 1024.3mb 73f 59f
6:00  -   -   -  13 18 mph 1024.2mb 73f 59f
5:50 7ft 10s 7s 13 20 mph 1024.3mb 73f 59f
5:40  -   -   -  16 18 mph 1024.3mb 73f 59f
5:30  -   -   -  16 20 mph 1024.3mb 73f 59f
5:20  -   -   -  13 22 mph 1024.5mb 73f 59f
5:10  -   -   -  13 20 mph 1024.5mb 73f 59f
5:00  -   -   -  11 18 mph 1024.5mb 73f 59f
4:50 7.5ft 11s 8s 13 20 mph 1024.5mb 73f 59f
4:40  -   -   -  11 20 mph 1024.8mb 73f 59f
4:30  -   -   -  11 16 mph 1025mb 73f 59f
4:20  -   -   -  13 18 mph 1025mb 73f 59f
4:10  -   -   -  11 20 mph 1025mb 73f 59f
4:00  -   -   -  11 18 mph 1025mb 73f 59f
3:50 6.5ft 10s 7s 11 16 mph 1025mb 73f 59f
3:40  -   -   -  11 18 mph 1025mb 73f 59f
3:30  -   -   -  11 16 mph 1025mb 73f 59f
3:20  -   -   -  9 18 mph 1024.8mb 73f 58f
3:10  -   -   -  11 16 mph 1024.8mb 73f 58f
3:00  -   -   -  9 16 mph 1024.8mb 73f 58f
2:50 6.5ft 9s 7s 7 13 mph 1024.8mb 73f 58f
2:40  -   -   -  9 16 mph 1024.8mb 73f 59f
2:30  -   -   -  9 13 mph 1024.8mb 73f 58f
2:20  -   -   -  9 16 mph 1024.8mb 73f 58f
2:10  -   -   -  9 16 mph 1025mb 72f 58f
2:00  -   -   -  7 11 mph 1025mb 72f 58f
1:50 7ft 11s 7s 9 13 mph 1025.3mb 72f 58f
1:40  -   -   -  9 16 mph 1025.3mb 72f 58f
1:30  -   -   -  9 13 mph 1025.5mb 72f 58f
1:20  -   -   -  11 18 mph 1025.5mb 72f 58f
1:10  -   -   -  9 13 mph 1025.8mb 72f 58f
1:00  -   -   -  7 13 mph 1025.8mb 72f 58f
12:50 7.5ft 10s 7s 7 13 mph 1026mb 72f 58f
12:40  -   -   -  7 13 mph 1026mb 73f 58f
12:30  -   -   -  7 11 mph 1026.3mb 73f 58f
12:20  -   -   -  7 13 mph 1026.3mb 73f 58f
12:10  -   -   -  9 13 mph 1026.5mb 73f 58f
12:00  -   -   -  7 13 mph 1026.7mb 73f 58f
11:50 9ft 11s 8s 7 11 mph 1026.8mb 73f 58f
11:40 9ft  -  8s 9 16 mph 1026.8mb 73f 58f
11:30  -   -   -  9 13 mph 1027mb 73f 58f
11:20  -   -   -  9 13 mph 1027.3mb 73f 58f
11:10  -   -   -  7 13 mph 1027.3mb 73f 58f
11:00  -   -   -  9 13 mph 1027.5mb 73f 58f
10:50 8ft 10s 7s 7 13 mph 1027.5mb 73f 58f
10:40  -   -   -  9 13 mph 1027.5mb 73f 58f
10:30  -   -   -  9 16 mph 1027.7mb 73f 58f
10:20  -   -   -  9 16 mph 1027.7mb 73f 58f
10:10  -   -   -  7 11 mph 1027.8mb 73f 58f
10:00  -   -   -  7 11 mph 1028mb 73f 57f
9:50 9.5ft 11s 7s 9 16 mph 1027.8mb 73f 58f
9:40  -   -   -  9 16 mph 1027.8mb 73f 57f
9:30  -   -   -  9 13 mph 1027.8mb 73f 57f
9:20  -   -   -  9 16 mph 1027.8mb 73f 57f
9:10  -   -   -  9 16 mph 1027.8mb 73f 57f
9:00  -   -   -  9 16 mph 1027.5mb 73f 57f
8:50 9.5ft 11s 8s 9 16 mph 1027.5mb 73f 57f
8:40  -   -   -  9 16 mph 1027.3mb 73f 57f
8:30  -   -   -  9 20 mph 1027.2mb 73f 57f
8:20  -   -   -  9 16 mph 1027mb 73f 57f
8:10  -   -   -  9 18 mph 1027mb 73f 57f
8:00  -   -   -  9 16 mph 1026.8mb 73f 57f
7:50 10.5ft 11s 8s 9 18 mph 1026.8mb 73f 57f
7:40  -   -   -  7 13 mph 1026.8mb 73f 56f
7:30  -   -   -  9 16 mph 1026.8mb 73f 56f
7:20  -   -   -  7 16 mph 1026.8mb 73f 56f
7:10  -   -   -  11 18 mph 1026.7mb 73f 56f
7:00  -   -   -  11 18 mph 1026.5mb 73f 56f
6:50 10.5ft 11s 8s 13 18 mph 1026.3mb 73f 56f
6:40  -   -   -  9 18 mph 1026.3mb 73f 56f
6:30  -   -   -  11 18 mph 1026.2mb 73f 56f
6:20  -   -   -  11 18 mph 1026.2mb 73f 56f
6:10  -   -   -  11 18 mph 1026mb 73f 56f
6:00  -   -   -  13 20 mph 1026mb 73f 56f
5:50 10ft 12s 8s 13 20 mph 1025.8mb 73f 56f
5:40  -   -   -  13 20 mph 1025.8mb 73f 56f
5:30  -   -   -  11 18 mph 1025.7mb 73f 56f
5:20  -   -   -  11 18 mph 1025.8mb 73f 56f
5:10  -   -   -  11 20 mph 1025.7mb 73f 56f
5:00  -   -   -  11 18 mph 1025.7mb 73f 56f
4:50 10ft 12s 8s 13 20 mph 1025.7mb 73f 55f
4:40  -   -   -  13 20 mph 1025.7mb 73f 55f
4:30  -   -   -  13 20 mph 1025.8mb 73f 55f
4:20  -   -   -  13 20 mph 1025.7mb 73f 56f
4:10  -   -   -  13 25 mph 1025.7mb 73f 56f
4:00  -   -   -  13 20 mph 1025.8mb 73f 55f
3:50 11ft 11s 8s 16 22 mph 1025.8mb 73f 55f
3:40  -   -   -  16 22 mph 1025.7mb 73f 55f
3:30  -   -   -  16 25 mph 1025.5mb 73f 55f
3:20  -   -   -  18 27 mph 1025.7mb 73f 55f
3:10  -   -   -  18 25 mph 1025.5mb 73f 55f
3:00  -   -   -  18 27 mph 1025.3mb 73f 55f
2:50 10.5ft 11s 7s 18 25 mph 1025.3mb 73f 55f
2:40  -   -   -  16 27 mph 1025.3mb 73f 55f
2:30  -   -   -  18 25 mph 1025.5mb 73f 55f
2:20  -   -   -  18 27 mph 1025.5mb 73f 55f
2:10  -   -   -  18 27 mph 1025.5mb 73f 55f
2:00  -   -   -  16 22 mph 1025.5mb 73f 55f
1:50 10.5ft 11s 7s 18 27 mph 1025.7mb 73f 55f
1:40  -   -   -  16 25 mph 1025.5mb 73f 56f
1:30  -   -   -  18 25 mph 1025.5mb 73f 55f
1:20  -   -   -  18 29 mph 1025.5mb 73f 56f
1:10  -   -   -  20 29 mph 1025.5mb 73f 55f
1:00  -   -   -  20 29 mph 1025.3mb 73f 56f
12:50 10.5ft 11s 7s 18 29 mph 1025.7mb 73f 56f
12:40  -   -   -  20 29 mph 1025.8mb 73f 56f
12:30  -   -   -  20 27 mph 1025.8mb 73f 55f
12:20  -   -   -  20 29 mph 1025.8mb 73f 56f
12:10  -   -   -  20 27 mph 1025.8mb 73f 55f
12:00  -   -   -  20 29 mph 1025.7mb 73f 56f
Sex 02/05 11:50 12.5ft 12s 7s 22 31 mph 1025.7mb 73f 56f
11:40  -   -   -  18 31 mph 1025.7mb 73f 55f
11:30  -   -   -  22 34 mph 1025.5mb 73f 55f
11:20  -   -   -  22 31 mph 1025.3mb 73f 55f
11:10  -   -   -  25 34 mph 1025.3mb 73f 56f
11:00  -   -   -  22 36 mph 1025.3mb 73f 56f
10:50 14.5ft 11s 8s 22 34 mph 1025.5mb 73f 56f
10:40  -   -   -  22 31 mph 1025.7mb 73f 55f
10:30  -   -   -  22 34 mph 1025.7mb 73f 56f
10:20  -   -   -  22 29 mph 1025.5mb 73f 55f
10:10  -   -   -  22 34 mph 1025.5mb 73f 55f
10:00  -   -   -  22 31 mph 1025.5mb 73f 55f
9:50 15.5ft 11s 8s 25 34 mph 1025.3mb 73f 55f